createdAt,value
2022-10-06T00:01:21.996Z,100815.41
2022-10-06T00:03:51.017Z,100813.70
2022-10-06T00:06:20.134Z,100813.99
2022-10-06T00:09:25.937Z,100813.91
2022-10-06T00:11:56.694Z,100810.91
2022-10-06T00:14:43.697Z,100806.27
2022-10-06T00:17:15.587Z,100806.77
2022-10-06T00:19:46.454Z,100808.20
2022-10-06T00:22:15.549Z,100813.09
2022-10-06T00:24:44.800Z,100812.70
2022-10-06T00:27:14.046Z,100814.27
2022-10-06T00:29:43.119Z,100812.97
2022-10-06T00:32:12.292Z,100814.66
2022-10-06T00:34:41.224Z,100813.60
2022-10-06T00:37:10.304Z,100809.11
2022-10-06T00:39:39.251Z,100810.20
2022-10-06T00:42:29.916Z,100810.44
2022-10-06T00:45:06.439Z,100811.52
2022-10-06T00:47:35.864Z,100812.05
2022-10-06T00:50:05.476Z,100808.97
2022-10-06T00:52:35.333Z,100806.52
2022-10-06T00:55:09.389Z,100806.38
2022-10-06T00:57:40.713Z,100809.73
2022-10-06T01:00:10.541Z,100807.12
2022-10-06T01:02:51.057Z,100808.54
2022-10-06T01:05:30.454Z,100809.41
2022-10-06T01:07:59.980Z,100805.73
2022-10-06T01:10:29.029Z,100805.88
2022-10-06T01:12:58.302Z,100809.25
2022-10-06T01:15:28.949Z,100810.40
2022-10-06T01:18:09.949Z,100814.49
2022-10-06T01:20:44.431Z,100810.02
2022-10-06T01:23:13.695Z,100815.00
2022-10-06T01:25:42.805Z,100815.89
2022-10-06T01:28:14.091Z,100816.99
2022-10-06T01:30:54.811Z,100813.90
2022-10-06T01:33:25.481Z,100814.05
2022-10-06T01:35:54.749Z,100820.14
2022-10-06T01:38:25.153Z,100815.93
2022-10-06T01:40:59.749Z,100816.10
2022-10-06T01:43:28.731Z,100814.80
2022-10-06T01:45:59.188Z,100814.29
2022-10-06T01:48:28.594Z,100815.34
2022-10-06T01:50:59.740Z,100815.08
2022-10-06T01:53:29.061Z,100816.53
2022-10-06T01:55:59.971Z,100817.35
2022-10-06T01:58:31.074Z,100822.72
2022-10-06T02:01:10.037Z,100826.94
2022-10-06T02:03:40.764Z,100827.84
2022-10-06T02:06:11.179Z,100829.27
2022-10-06T02:08:40.343Z,100830.73
2022-10-06T02:11:12.202Z,100829.69
2022-10-06T02:13:44.163Z,100827.64
2022-10-06T02:16:14.316Z,100828.11
2022-10-06T02:18:44.970Z,100834.66
2022-10-06T02:21:20.219Z,100836.08
2022-10-06T02:23:49.369Z,100835.50
2022-10-06T02:26:19.270Z,100836.11
2022-10-06T02:28:52.159Z,100838.35
2022-10-06T02:31:24.358Z,100842.98
2022-10-06T02:33:54.385Z,100844.44
2022-10-06T02:36:25.106Z,100842.98
2022-10-06T02:38:54.605Z,100845.05
2022-10-06T02:41:24.405Z,100851.23
2022-10-06T02:43:55.325Z,100852.55
2022-10-06T02:46:25.736Z,100851.55
2022-10-06T02:48:55.216Z,100857.36
2022-10-06T02:51:25.397Z,100859.32
2022-10-06T02:53:55.141Z,100864.67
2022-10-06T02:56:29.412Z,100868.69
2022-10-06T02:58:59.539Z,100868.48
2022-10-06T03:01:32.645Z,100866.86
2022-10-06T03:04:06.211Z,100869.91
2022-10-06T03:06:37.241Z,100872.10
2022-10-06T03:09:10.694Z,100874.82
2022-10-06T03:11:43.535Z,100878.20
2022-10-06T03:14:21.363Z,100878.46
2022-10-06T03:16:56.834Z,100880.33
2022-10-06T03:19:28.269Z,100878.70
2022-10-06T03:21:57.336Z,100878.60
2022-10-06T03:24:37.497Z,100881.85
2022-10-06T03:27:06.959Z,100885.85
2022-10-06T03:29:36.163Z,100887.77
2022-10-06T03:32:05.626Z,100887.08
2022-10-06T03:34:35.874Z,100886.77
2022-10-06T03:37:06.282Z,100887.98
2022-10-06T03:39:35.752Z,100888.88
2022-10-06T03:42:04.619Z,100888.86
2022-10-06T03:44:35.571Z,100885.73
2022-10-06T03:47:04.848Z,100887.61
2022-10-06T03:49:34.568Z,100890.86
2022-10-06T03:52:03.585Z,100894.85
2022-10-06T03:54:36.263Z,100901.44
2022-10-06T03:57:05.198Z,100903.09
2022-10-06T03:59:34.885Z,100902.48
2022-10-06T04:02:05.674Z,100902.73
2022-10-06T04:04:38.767Z,100911.76
2022-10-06T04:07:11.549Z,100913.48
2022-10-06T04:09:41.374Z,100913.33
2022-10-06T04:12:12.113Z,100918.35
2022-10-06T04:14:41.947Z,100913.66
2022-10-06T04:17:11.028Z,100920.70
2022-10-06T04:19:42.107Z,100923.83
2022-10-06T04:22:11.111Z,100928.71
2022-10-06T04:24:40.289Z,100932.53
2022-10-06T04:27:27.523Z,100933.93
2022-10-06T04:30:15.423Z,100933.70
2022-10-06T04:32:46.181Z,100934.48
2022-10-06T04:35:15.492Z,100933.51
2022-10-06T04:37:44.547Z,100934.45
2022-10-06T04:40:13.834Z,100939.61
2022-10-06T04:42:43.222Z,100941.66
2022-10-06T04:45:16.008Z,100944.54
2022-10-06T04:47:48.725Z,100945.94
2022-10-06T04:50:18.573Z,100951.02
2022-10-06T04:53:05.947Z,100952.38
2022-10-06T04:55:35.026Z,100959.16
2022-10-06T04:58:04.799Z,100959.84
2022-10-06T05:00:34.041Z,100965.97
2022-10-06T05:03:02.928Z,100969.52
2022-10-06T05:05:32.025Z,100972.93
2022-10-06T05:08:01.139Z,100972.91
2022-10-06T05:10:30.946Z,100978.95
2022-10-06T05:12:59.980Z,100985.83
2022-10-06T05:15:29.267Z,100980.11
2022-10-06T05:17:58.214Z,100984.13
2022-10-06T05:20:28.529Z,100983.52
2022-10-06T05:22:58.038Z,100988.30
2022-10-06T05:25:29.774Z,100992.38
2022-10-06T05:28:10.844Z,100994.59
2022-10-06T05:30:58.051Z,100997.55
2022-10-06T05:33:34.511Z,101003.52
2022-10-06T05:36:18.766Z,101013.05
2022-10-06T05:38:59.635Z,101016.53
2022-10-06T05:41:42.668Z,101024.70
2022-10-06T05:44:18.652Z,101026.48
2022-10-06T05:46:54.192Z,101023.23
2022-10-06T05:49:26.991Z,101026.67
2022-10-06T05:51:59.791Z,101033.73
2022-10-06T05:54:40.824Z,101038.41
2022-10-06T06:01:56.403Z,101046.09
2022-10-06T06:05:03.494Z,101051.28
2022-10-06T06:08:28.045Z,101051.15
2022-10-06T06:11:35.770Z,101055.48
2022-10-06T06:15:25.350Z,101056.95
2022-10-06T06:18:54.653Z,101063.85
2022-10-06T06:27:13.240Z,101078.36
2022-10-06T07:03:55.940Z,101127.58
2022-10-06T07:06:32.414Z,101130.42
2022-10-06T07:09:07.780Z,101130.77
2022-10-06T07:11:43.276Z,101136.42
2022-10-06T07:14:24.504Z,101139.65
2022-10-06T07:17:15.696Z,101140.55
2022-10-06T07:20:10.718Z,101143.09
2022-10-06T07:22:59.846Z,101149.17
2022-10-06T07:25:55.152Z,101149.32
2022-10-06T07:28:56.366Z,101153.17
2022-10-06T07:31:44.603Z,101152.50
2022-10-06T07:34:28.938Z,101160.80
2022-10-06T07:37:39.725Z,101166.11
2022-10-06T07:40:34.030Z,101176.69
2022-10-06T07:43:18.567Z,101182.77
2022-10-06T07:46:28.707Z,101183.20
2022-10-06T07:49:25.388Z,101181.77
2022-10-06T07:52:13.146Z,101187.56
2022-10-06T07:55:04.373Z,101191.55
2022-10-06T07:58:17.768Z,101190.12
2022-10-06T08:01:34.214Z,101193.69
2022-10-06T08:04:22.036Z,101191.89
2022-10-06T08:06:54.705Z,101196.90
2022-10-06T08:09:27.581Z,101204.58
2022-10-06T08:12:27.569Z,101209.36
2022-10-06T08:22:38.858Z,101222.56
2022-10-06T08:27:41.837Z,101227.58
2022-10-06T08:29:59.619Z,101232.67
2022-10-06T08:32:29.413Z,101239.89
2022-10-06T08:35:02.068Z,101243.35
2022-10-06T08:37:37.965Z,101249.11
2022-10-06T08:40:19.145Z,101255.23
2022-10-06T08:43:08.322Z,101259.94
2022-10-06T08:46:22.483Z,101262.31
2022-10-06T08:49:35.724Z,101266.92
2022-10-06T08:53:00.330Z,101272.98
2022-10-06T08:56:11.020Z,101281.20
2022-10-06T08:59:09.972Z,101288.55
2022-10-06T09:02:52.780Z,101298.54
2022-10-06T09:05:41.372Z,101301.57
2022-10-06T09:09:48.676Z,101300.82
2022-10-06T09:13:00.775Z,101308.48
2022-10-06T09:20:25.194Z,101315.17
2022-10-06T09:32:03.127Z,101319.44
2022-10-06T09:35:05.923Z,101327.23
2022-10-06T09:38:53.743Z,101335.10
2022-10-06T09:42:21.115Z,101337.08
2022-10-06T09:45:37.035Z,101340.54
2022-10-06T09:48:46.951Z,101343.95
2022-10-06T09:52:25.435Z,101346.41
2022-10-06T09:55:16.154Z,101349.45
2022-10-06T09:58:04.936Z,101347.96
2022-10-06T10:01:02.376Z,101349.77
2022-10-06T10:04:21.029Z,101353.95
2022-10-06T10:07:29.766Z,101359.54
2022-10-06T10:10:50.622Z,101361.38
2022-10-06T10:14:06.181Z,101369.92
2022-10-06T10:17:21.178Z,101376.85
2022-10-06T10:20:35.502Z,101382.00
2022-10-06T10:24:07.913Z,101388.66
2022-10-06T10:27:20.300Z,101395.53
2022-10-06T10:30:42.949Z,101401.73
2022-10-06T10:33:26.977Z,101404.99
2022-10-06T10:36:22.594Z,101412.94
2022-10-06T10:39:00.299Z,101418.70
2022-10-06T10:41:47.688Z,101416.65
2022-10-06T10:45:07.198Z,101414.83
2022-10-06T10:48:25.265Z,101411.96
2022-10-06T10:51:45.369Z,101413.78
2022-10-06T10:59:19.657Z,101419.30
2022-10-06T11:02:45.537Z,101426.52
2022-10-06T11:06:14.017Z,101429.57
2022-10-06T11:09:57.222Z,101429.73
2022-10-06T11:13:16.516Z,101437.91
2022-10-06T11:16:37.363Z,101445.80
2022-10-06T11:29:27.386Z,101452.19
2022-10-06T11:32:32.906Z,101450.66
2022-10-06T11:35:15.352Z,101456.48
2022-10-06T11:38:21.270Z,101455.67
2022-10-06T11:41:36.976Z,101466.86
2022-10-06T11:44:32.613Z,101468.63
2022-10-06T11:47:45.980Z,101472.09
2022-10-06T11:50:45.379Z,101477.18
2022-10-06T11:53:37.274Z,101483.68
2022-10-06T11:56:18.407Z,101484.81
2022-10-06T11:59:30.382Z,101487.73
2022-10-06T12:02:32.709Z,101492.56
2022-10-06T12:05:35.651Z,101490.19
2022-10-06T12:08:02.318Z,101485.52
2022-10-06T12:10:32.660Z,101492.17
2022-10-06T12:20:38.678Z,101499.26
2022-10-06T12:24:02.853Z,101495.16
2022-10-06T12:26:49.538Z,101493.42
2022-10-06T12:30:26.586Z,101498.13
2022-10-06T12:33:05.207Z,101501.11
2022-10-06T12:35:42.642Z,101506.33
2022-10-06T12:38:44.637Z,101509.87
2022-10-06T12:41:16.465Z,101510.60
2022-10-06T12:43:55.872Z,101510.88
2022-10-06T12:47:06.237Z,101512.65
2022-10-06T12:50:06.606Z,101518.28
2022-10-06T12:52:56.482Z,101521.75
2022-10-06T13:02:50.844Z,101524.30
2022-10-06T13:09:13.468Z,101521.38
2022-10-06T13:18:54.344Z,101522.84
2022-10-06T13:29:37.833Z,101527.66
2022-10-06T13:32:21.488Z,101533.60
2022-10-06T13:35:26.534Z,101540.27
2022-10-06T13:38:06.146Z,101541.73
2022-10-06T13:41:13.688Z,101537.13
2022-10-06T13:44:11.980Z,101540.55
2022-10-06T13:47:40.306Z,101541.48
2022-10-06T13:50:20.796Z,101544.98
2022-10-06T13:56:52.161Z,101544.20
2022-10-06T13:59:53.520Z,101547.42
2022-10-06T14:03:02.094Z,101554.95
2022-10-06T14:05:46.834Z,101553.37
2022-10-06T14:08:33.933Z,101553.28
2022-10-06T14:11:31.611Z,101554.75
2022-10-06T14:14:12.114Z,101556.10
2022-10-06T14:17:14.158Z,101560.20
2022-10-06T14:20:45.068Z,101567.36
2022-10-06T14:23:53.523Z,101569.83
2022-10-06T14:29:50.006Z,101569.14
2022-10-06T14:32:53.404Z,101570.92
2022-10-06T14:35:59.987Z,101574.68
2022-10-06T14:38:50.865Z,101572.14
2022-10-06T14:42:05.787Z,101580.42
2022-10-06T14:45:10.937Z,101584.42
2022-10-06T14:48:21.683Z,101583.59
2022-10-06T14:51:08.065Z,101590.83
2022-10-06T14:53:46.070Z,101596.42
2022-10-06T14:56:24.579Z,101596.98
2022-10-06T14:59:15.230Z,101601.43
2022-10-06T15:02:26.001Z,101604.88
2022-10-06T15:05:07.617Z,101606.91
2022-10-06T15:08:11.169Z,101607.66
2022-10-06T15:10:53.551Z,101607.38
2022-10-06T15:13:52.561Z,101610.14
2022-10-06T15:16:33.486Z,101619.77
2022-10-06T15:19:25.750Z,101621.89
2022-10-06T15:22:13.849Z,101626.33
2022-10-06T15:25:14.932Z,101627.13
2022-10-06T15:28:25.046Z,101628.19
2022-10-06T15:31:11.683Z,101628.94
2022-10-06T15:33:57.352Z,101630.28
2022-10-06T15:39:38.716Z,101640.56
2022-10-06T15:42:16.907Z,101641.15
2022-10-06T15:45:12.684Z,101644.44
2022-10-06T15:48:28.209Z,101642.41
2022-10-06T15:55:11.668Z,101651.30
2022-10-06T15:57:57.573Z,101656.23
2022-10-06T16:01:51.478Z,101655.13
2022-10-06T16:05:30.107Z,101657.61
2022-10-06T16:07:50.595Z,101661.10
2022-10-06T16:10:42.916Z,101670.94
2022-10-06T16:13:34.863Z,101670.33
2022-10-06T16:20:14.377Z,101669.77
2022-10-06T16:22:55.365Z,101675.56
2022-10-06T16:26:07.363Z,101677.13
2022-10-06T16:29:03.953Z,101683.05
2022-10-06T16:31:59.397Z,101693.38
2022-10-06T16:35:06.854Z,101695.08
2022-10-06T16:37:57.918Z,101699.44
2022-10-06T16:41:27.992Z,101702.40
2022-10-06T16:43:50.609Z,101708.07
2022-10-06T16:46:43.068Z,101709.83
2022-10-06T16:49:47.060Z,101716.59
2022-10-06T16:58:05.124Z,101722.66
2022-10-06T17:04:34.494Z,101737.66
2022-10-06T17:10:44.013Z,101744.56
2022-10-06T17:14:00.958Z,101744.77
2022-10-06T17:17:03.276Z,101744.91
2022-10-06T17:20:07.634Z,101751.58
2022-10-06T17:26:32.487Z,101757.31
2022-10-06T17:30:26.838Z,101765.04
2022-10-06T17:33:36.763Z,101769.04
2022-10-06T17:36:55.156Z,101770.25
2022-10-06T17:48:33.875Z,101773.49
2022-10-06T18:44:17.878Z,101812.71
2022-10-06T18:48:15.277Z,101820.84
2022-10-06T18:52:28.908Z,101821.66
2022-10-06T19:37:00.220Z,101855.20
2022-10-06T19:40:27.795Z,101854.40
2022-10-06T19:44:01.608Z,101859.27
2022-10-06T19:47:17.436Z,101863.99
2022-10-06T20:01:39.151Z,101870.42
2022-10-06T20:25:30.545Z,101884.95
2022-10-06T20:27:58.157Z,101884.18
2022-10-06T20:40:04.886Z,101894.70
2022-10-06T20:50:58.276Z,101896.10
2022-10-06T20:53:43.654Z,101899.98
2022-10-06T20:56:46.228Z,101898.67
2022-10-06T21:04:08.038Z,101899.48
2022-10-06T21:07:23.575Z,101896.39
2022-10-06T21:10:33.343Z,101899.58
2022-10-06T21:13:27.412Z,101900.81
2022-10-06T21:17:44.336Z,101899.35
2022-10-06T21:21:05.136Z,101899.33
2022-10-06T21:28:37.536Z,101893.40
2022-10-06T21:35:48.233Z,101897.83
2022-10-06T21:38:28.871Z,101890.58
2022-10-06T21:46:26.898Z,101896.53
2022-10-06T22:00:18.715Z,101903.37
2022-10-06T22:03:11.381Z,101909.98
2022-10-06T22:05:57.692Z,101908.27
2022-10-06T22:08:53.177Z,101906.72
2022-10-06T22:11:41.693Z,101906.05
2022-10-06T22:14:32.429Z,101903.65
2022-10-06T22:17:18.951Z,101909.05
2022-10-06T22:19:55.417Z,101907.34
2022-10-06T22:22:42.272Z,101904.94
2022-10-06T22:25:36.106Z,101904.09
2022-10-06T22:28:21.033Z,101904.82
2022-10-06T22:31:12.882Z,101904.66
2022-10-06T22:34:14.036Z,101907.81
2022-10-06T22:36:49.296Z,101908.89
2022-10-06T22:39:32.094Z,101910.11
2022-10-06T22:42:06.626Z,101905.79
2022-10-06T22:44:50.292Z,101906.84
2022-10-06T22:47:25.949Z,101903.39
2022-10-06T22:50:25.349Z,101903.05
2022-10-06T22:53:41.029Z,101899.08
2022-10-06T22:56:21.703Z,101900.83
2022-10-06T22:59:23.648Z,101895.84
2022-10-06T23:02:22.471Z,101897.65
2022-10-06T23:05:08.832Z,101899.98
2022-10-06T23:08:40.241Z,101897.58
2022-10-06T23:11:29.186Z,101894.66
2022-10-06T23:14:34.176Z,101893.30
2022-10-06T23:17:17.967Z,101894.56
2022-10-06T23:20:18.611Z,101901.20
2022-10-06T23:22:54.296Z,101906.05
2022-10-06T23:25:32.070Z,101908.65
2022-10-06T23:28:10.418Z,101904.13
2022-10-06T23:31:12.138Z,101909.17
2022-10-06T23:36:08.028Z,101908.66
2022-10-06T23:37:40.021Z,101903.48
2022-10-06T23:40:25.803Z,101903.67
2022-10-06T23:43:37.988Z,101903.69
2022-10-06T23:46:36.269Z,101900.92
2022-10-06T23:49:36.888Z,101900.23
2022-10-06T23:52:34.685Z,101901.98
2022-10-06T23:55:13.912Z,101902.67
2022-10-06T23:57:55.351Z,101905.30
